Time;durP1;ratioP1;P1;durP2;ratioP2;P2;SDS_P1;SDS_P2;PMS_P1;PMS_P2;Temp;Humidity;BMP_temperature;BMP_pressure;BME280_temperature;BME280_humidity;BME280_pressure;Samples;Min_cycle;Max_cycle;Signal;HPM_P1;HPM_P2
2024/04/23 00:01:51;;;;;;;0.30;0.30;;;;;;;;;;5379562;26;85197;-43
2024/04/23 00:04:16;;;;;;;0.80;0.40;;;;;;;;;;5380050;26;85380;-45
2024/04/23 00:06:49;;;;;;;0.50;0.20;;;;;;;;;;5379792;26;85720;-53
2024/04/23 00:09:14;;;;;;;0.87;0.37;;;;;;;;;;5378371;26;85552;-45
2024/04/23 00:11:39;;;;;;;0.30;0.27;;;;;;;;;;5383851;26;84745;-43
2024/04/23 00:14:05;;;;;;;0.70;0.50;;;;;;;;;;5382580;26;85756;-47
2024/04/23 00:16:30;;;;;;;0.97;0.40;;;;;;;;;;5375468;26;85425;-48
2024/04/23 00:18:55;;;;;;;0.40;0.30;;;;;;;;;;5378628;26;86708;-46
2024/04/23 00:21:20;;;;;;;0.57;0.57;;;;;;;;;;5370332;26;85473;-43
2024/04/23 00:23:46;;;;;;;0.52;0.45;;;;;;;;;;5383353;26;85046;-48
2024/04/23 00:26:11;;;;;;;1.30;0.40;;;;;;;;;;5378467;26;85759;-45
2024/04/23 00:28:36;;;;;;;0.60;0.40;;;;;;;;;;5381992;26;85606;-46
2024/04/23 00:31:01;;;;;;;0.40;0.40;;;;;;;;;;5382931;26;86236;-45
2024/04/23 00:33:26;;;;;;;0.70;0.50;;;;;;;;;;5365767;26;85729;-47
2024/04/23 00:35:52;;;;;;;0.87;0.37;;;;;;;;;;5375060;26;84587;-46
2024/04/23 00:38:17;;;;;;;0.50;0.30;;;;;;;;;;5374878;26;85315;-46
2024/04/23 00:40:42;;;;;;;0.20;0.20;;;;;;;;;;5382739;26;85259;-45
2024/04/23 00:43:07;;;;;;;0.27;0.20;;;;;;;;;;5377611;26;88752;-43
2024/04/23 00:45:33;;;;;;;0.20;0.20;;;;;;;;;;5385071;26;86541;-46
2024/04/23 00:47:59;;;;;;;0.35;0.35;;;;;;;;;;5377489;26;85461;-43
2024/04/23 00:50:24;;;;;;;0.98;0.47;;;;;;;;;;5372647;25;85622;-45
2024/04/23 00:52:50;;;;;;;0.17;0.17;;;;;;;;;;5388981;26;85415;-44
2024/04/23 00:55:15;;;;;;;1.27;0.47;;;;;;;;;;5367631;26;85863;-43
2024/04/23 00:57:41;;;;;;;0.40;0.20;;;;;;;;;;5381983;26;85617;-44
2024/04/23 01:00:06;;;;;;;0.50;0.30;;;;;;;;;;5386823;25;85634;-48
2024/04/23 01:02:32;;;;;;;0.30;0.23;;;;;;;;;;5375594;26;85364;-45
2024/04/23 01:04:57;;;;;;;0.50;0.38;;;;;;;;;;5385458;26;86261;-46
2024/04/23 01:07:22;;;;;;;3.10;0.50;;;;;;;;;;5375440;26;87450;-44
2024/04/23 01:09:48;;;;;;;0.43;0.33;;;;;;;;;;5380596;26;85553;-49
2024/04/23 01:12:13;;;;;;;2.60;0.57;;;;;;;;;;5384107;26;85396;-45
2024/04/23 01:14:40;;;;;;;0.80;0.40;;;;;;;;;;5373861;26;85435;-48
2024/04/23 01:17:06;;;;;;;0.30;0.30;;;;;;;;;;5381668;26;86810;-52
2024/04/23 01:19:34;;;;;;;0.17;0.17;;;;;;;;;;5382074;25;85083;-43
2024/04/23 01:22:02;;;;;;;0.80;0.40;;;;;;;;;;5380094;26;87021;-44
2024/04/23 01:24:32;;;;;;;0.20;0.20;;;;;;;;;;5383361;26;84751;-45
2024/04/23 01:26:58;;;;;;;0.68;0.38;;;;;;;;;;5378063;26;85065;-48
2024/04/23 01:29:23;;;;;;;0.40;0.13;;;;;;;;;;5371904;26;85430;-46
2024/04/23 01:31:49;;;;;;;1.70;0.53;;;;;;;;;;5375925;26;86727;-44
2024/04/23 01:34:14;;;;;;;0.10;0.10;;;;;;;;;;5376080;26;85784;-47
2024/04/23 01:36:39;;;;;;;0.80;0.30;;;;;;;;;;5381003;26;85325;-43
2024/04/23 01:39:05;;;;;;;0.27;0.27;;;;;;;;;;5371625;26;85561;-46
2024/04/23 01:41:30;;;;;;;1.93;0.53;;;;;;;;;;5366206;26;86265;-45
2024/04/23 01:43:56;;;;;;;0.30;0.30;;;;;;;;;;5374501;26;85717;-44
2024/04/23 01:46:21;;;;;;;0.30;0.30;;;;;;;;;;5384529;26;85288;-44
2024/04/23 01:48:47;;;;;;;0.20;0.20;;;;;;;;;;5379885;26;84530;-49
2024/04/23 01:51:12;;;;;;;0.68;0.40;;;;;;;;;;5384232;25;85602;-49
2024/04/23 01:53:37;;;;;;;0.10;0.10;;;;;;;;;;5376117;26;86850;-44
2024/04/23 01:56:03;;;;;;;0.30;0.20;;;;;;;;;;5380913;26;86551;-43
2024/04/23 01:58:28;;;;;;;0.50;0.38;;;;;;;;;;5367131;25;86453;-45
2024/04/23 02:00:56;;;;;;;0.70;0.20;;;;;;;;;;5376022;26;86267;-45
2024/04/23 02:03:21;;;;;;;0.43;0.20;;;;;;;;;;5377845;26;85704;-46
2024/04/23 02:05:47;;;;;;;1.33;0.33;;;;;;;;;;5373052;26;85333;-49
2024/04/23 02:08:12;;;;;;;0.33;0.33;;;;;;;;;;5386526;26;85991;-46
2024/04/23 02:10:41;;;;;;;0.50;0.20;;;;;;;;;;5382273;26;85555;-47
2024/04/23 02:13:07;;;;;;;0.20;0.20;;;;;;;;;;5379716;26;84956;-45
2024/04/23 02:15:32;;;;;;;1.63;0.20;;;;;;;;;;5377914;26;85399;-46
2024/04/23 02:17:57;;;;;;;1.33;0.20;;;;;;;;;;5377344;26;85685;-43
2024/04/23 02:20:23;;;;;;;1.80;0.70;;;;;;;;;;5378309;26;86040;-43
2024/04/23 02:22:48;;;;;;;0.33;0.27;;;;;;;;;;5385298;26;86848;-43
2024/04/23 02:25:13;;;;;;;2.57;0.50;;;;;;;;;;5383304;26;85432;-44
2024/04/23 02:27:38;;;;;;;0.50;0.50;;;;;;;;;;5382168;26;85601;-46
2024/04/23 02:30:04;;;;;;;0.37;0.33;;;;;;;;;;5383180;25;85717;-48
2024/04/23 02:32:29;;;;;;;0.20;0.20;;;;;;;;;;5392642;26;85532;-45
2024/04/23 02:34:54;;;;;;;2.00;0.40;;;;;;;;;;5379464;26;85167;-46
2024/04/23 02:37:20;;;;;;;0.20;0.20;;;;;;;;;;5373184;26;85379;-47
2024/04/23 02:39:45;;;;;;;1.50;0.60;;;;;;;;;;5385035;26;85527;-46
2024/04/23 02:42:10;;;;;;;0.30;0.30;;;;;;;;;;5385046;26;85255;-49
2024/04/23 02:44:35;;;;;;;0.90;0.50;;;;;;;;;;5380158;26;88307;-47
2024/04/23 02:47:00;;;;;;;0.20;0.10;;;;;;;;;;5379452;26;85695;-46
2024/04/23 02:49:26;;;;;;;1.50;0.60;;;;;;;;;;5383795;26;85069;-45
2024/04/23 02:51:52;;;;;;;0.20;0.20;;;;;;;;;;5387809;26;86091;-43
2024/04/23 02:54:17;;;;;;;1.00;0.40;;;;;;;;;;5373966;26;85457;-46
2024/04/23 02:56:47;;;;;;;0.20;0.20;;;;;;;;;;5378674;26;85480;-45
2024/04/23 02:59:13;;;;;;;0.40;0.40;;;;;;;;;;5373115;25;85659;-46
2024/04/23 03:01:38;;;;;;;0.60;0.50;;;;;;;;;;5384653;26;84446;-48
2024/04/23 03:04:04;;;;;;;1.60;0.50;;;;;;;;;;5375263;26;85924;-42
2024/04/23 03:06:29;;;;;;;1.83;0.63;;;;;;;;;;5377077;25;85490;-46
2024/04/23 03:08:55;;;;;;;0.73;0.40;;;;;;;;;;5373170;26;86408;-44
2024/04/23 03:11:20;;;;;;;0.40;0.28;;;;;;;;;;5383428;26;85330;-44
2024/04/23 03:13:45;;;;;;;0.40;0.30;;;;;;;;;;5374769;26;85787;-46
2024/04/23 03:16:11;;;;;;;0.20;0.20;;;;;;;;;;5376605;26;85055;-46
2024/04/23 03:18:36;;;;;;;0.20;0.20;;;;;;;;;;5393449;26;85775;-45
2024/04/23 03:21:01;;;;;;;0.80;0.40;;;;;;;;;;5384169;25;85238;-43
2024/04/23 03:23:26;;;;;;;0.70;0.40;;;;;;;;;;5371354;26;88623;-45
2024/04/23 03:25:51;;;;;;;0.40;0.40;;;;;;;;;;5377584;26;84855;-50
2024/04/23 03:28:17;;;;;;;0.40;0.30;;;;;;;;;;5380785;26;86012;-47
2024/04/23 03:30:42;;;;;;;1.10;0.30;;;;;;;;;;5380390;26;85997;-48
2024/04/23 03:33:07;;;;;;;0.40;0.40;;;;;;;;;;5383487;26;86661;-44
2024/04/23 03:35:33;;;;;;;0.20;0.20;;;;;;;;;;5379071;26;87650;-45
2024/04/23 03:37:58;;;;;;;0.73;0.40;;;;;;;;;;5379650;26;85492;-48
2024/04/23 03:40:23;;;;;;;0.10;0.10;;;;;;;;;;5376989;26;86448;-45
2024/04/23 03:42:48;;;;;;;0.43;0.33;;;;;;;;;;5388346;26;85380;-52
2024/04/23 03:45:13;;;;;;;0.10;0.10;;;;;;;;;;5383610;26;88860;-43
2024/04/23 03:47:39;;;;;;;1.00;0.50;;;;;;;;;;5382231;26;85451;-45
2024/04/23 03:50:04;;;;;;;0.33;0.33;;;;;;;;;;5378253;26;85449;-47
2024/04/23 03:52:30;;;;;;;0.60;0.60;;;;;;;;;;5386778;26;85995;-49
2024/04/23 03:54:55;;;;;;;0.47;0.37;;;;;;;;;;5389233;26;85382;-43
2024/04/23 03:57:20;;;;;;;0.40;0.20;;;;;;;;;;5370329;26;86837;-46
2024/04/23 03:59:45;;;;;;;0.93;0.50;;;;;;;;;;5385494;25;85124;-46
2024/04/23 04:07:38;;;;;;;0.57;0.38;;;;;;;;;;5376499;26;85368;-47
2024/04/23 04:10:04;;;;;;;0.37;0.37;;;;;;;;;;5376402;26;85601;-45
2024/04/23 04:12:29;;;;;;;1.00;0.50;;;;;;;;;;5375385;25;85617;-46
2024/04/23 04:14:54;;;;;;;5.70;0.60;;;;;;;;;;5374941;26;84469;-44
2024/04/23 04:17:19;;;;;;;0.33;0.20;;;;;;;;;;5386117;26;85860;-43
2024/04/23 04:19:45;;;;;;;0.40;0.30;;;;;;;;;;5382970;25;85147;-49
2024/04/23 04:22:10;;;;;;;0.22;0.22;;;;;;;;;;5381214;26;86183;-44
2024/04/23 04:24:35;;;;;;;0.20;0.20;;;;;;;;;;5376981;26;85653;-44
2024/04/23 04:27:00;;;;;;;0.30;0.30;;;;;;;;;;5379421;26;85599;-47
2024/04/23 04:29:26;;;;;;;0.40;0.40;;;;;;;;;;5381938;26;85254;-48
2024/04/23 04:31:51;;;;;;;1.77;0.37;;;;;;;;;;5376479;26;85294;-48
2024/04/23 04:34:16;;;;;;;0.13;0.13;;;;;;;;;;5378889;26;85167;-46
2024/04/23 04:36:41;;;;;;;0.27;0.20;;;;;;;;;;5374949;26;85730;-43
2024/04/23 04:39:06;;;;;;;0.60;0.40;;;;;;;;;;5370544;26;84549;-50
2024/04/23 04:41:32;;;;;;;0.20;0.20;;;;;;;;;;5375035;26;86780;-50
2024/04/23 04:43:57;;;;;;;0.70;0.20;;;;;;;;;;5372224;26;85104;-47
2024/04/23 04:46:22;;;;;;;0.20;0.20;;;;;;;;;;5383923;26;86234;-48
2024/04/23 04:48:47;;;;;;;0.50;0.23;;;;;;;;;;5378358;26;86456;-47
2024/04/23 04:51:13;;;;;;;2.50;0.33;;;;;;;;;;5385863;26;87197;-45
2024/04/23 04:53:38;;;;;;;1.67;0.40;;;;;;;;;;5380098;26;85533;-46
2024/04/23 04:56:04;;;;;;;0.67;0.23;;;;;;;;;;5368754;26;86932;-47
2024/04/23 04:58:29;;;;;;;0.20;0.20;;;;;;;;;;5386160;26;86288;-50
2024/04/23 05:00:54;;;;;;;0.50;0.30;;;;;;;;;;5382356;25;85203;-44
2024/04/23 05:03:19;;;;;;;0.33;0.30;;;;;;;;;;5383257;25;84393;-48
2024/04/23 05:05:45;;;;;;;0.50;0.40;;;;;;;;;;5381785;26;85521;-45
2024/04/23 05:08:10;;;;;;;0.87;0.57;;;;;;;;;;5389554;26;86211;-46
2024/04/23 05:10:35;;;;;;;0.57;0.20;;;;;;;;;;5374151;26;86650;-44
2024/04/23 05:13:00;;;;;;;1.90;0.30;;;;;;;;;;5373836;26;85151;-45
2024/04/23 05:15:26;;;;;;;0.50;0.40;;;;;;;;;;5379171;26;88587;-43
2024/04/23 05:17:51;;;;;;;0.90;0.47;;;;;;;;;;5378079;26;85406;-48
2024/04/23 05:20:16;;;;;;;0.70;0.30;;;;;;;;;;5395179;25;85779;-45
2024/04/23 05:22:41;;;;;;;3.10;0.80;;;;;;;;;;5367075;26;86605;-45
2024/04/23 05:25:07;;;;;;;3.40;0.83;;;;;;;;;;5371058;26;85232;-49
2024/04/23 05:27:32;;;;;;;3.20;0.30;;;;;;;;;;5386154;26;85527;-44
2024/04/23 05:29:57;;;;;;;0.70;0.53;;;;;;;;;;5380768;26;86214;-46
2024/04/23 05:35:07;;;;;;;4.93;0.65;;;;;;;;;;5382830;26;86466;-46
2024/04/23 05:37:33;;;;;;;0.60;0.30;;;;;;;;;;5378663;26;85760;-46
2024/04/23 05:39:58;;;;;;;0.60;0.40;;;;;;;;;;5384402;25;85396;-49
2024/04/23 05:42:23;;;;;;;0.70;0.43;;;;;;;;;;5381753;26;86551;-43
2024/04/23 05:44:48;;;;;;;0.40;0.40;;;;;;;;;;5395663;26;85742;-49
2024/04/23 05:47:14;;;;;;;0.90;0.30;;;;;;;;;;5397932;26;85484;-44
2024/04/23 05:49:58;;;;;;;0.33;0.33;;;;;;;;;;5381502;26;87148;-45
2024/04/23 05:52:42;;;;;;;0.70;0.20;;;;;;;;;;5387037;26;85893;-43
2024/04/23 05:55:25;;;;;;;0.45;0.45;;;;;;;;;;5377183;26;85165;-48
2024/04/23 05:57:51;;;;;;;0.43;0.37;;;;;;;;;;5383957;25;85973;-44
2024/04/23 06:00:16;;;;;;;0.80;0.60;;;;;;;;;;5383307;26;86189;-45
2024/04/23 06:02:41;;;;;;;1.07;0.50;;;;;;;;;;5375391;26;85250;-49
2024/04/23 06:05:06;;;;;;;0.40;0.30;;;;;;;;;;5380146;26;85751;-45
2024/04/23 06:07:32;;;;;;;0.83;0.33;;;;;;;;;;5385880;26;86771;-46
2024/04/23 06:09:57;;;;;;;0.70;0.30;;;;;;;;;;5364200;26;88292;-48
2024/04/23 06:12:22;;;;;;;1.37;0.40;;;;;;;;;;5382443;26;85175;-43
2024/04/23 06:14:47;;;;;;;0.40;0.40;;;;;;;;;;5381089;26;85027;-45
2024/04/23 06:17:15;;;;;;;0.47;0.47;;;;;;;;;;5385072;26;85100;-48
2024/04/23 06:19:41;;;;;;;0.40;0.40;;;;;;;;;;5381084;26;85461;-43
2024/04/23 06:22:06;;;;;;;1.30;0.70;;;;;;;;;;5377478;26;85709;-44
2024/04/23 06:24:31;;;;;;;0.70;0.70;;;;;;;;;;5378884;26;86213;-43
2024/04/23 06:26:56;;;;;;;0.60;0.47;;;;;;;;;;5376107;26;85545;-46
2024/04/23 06:29:21;;;;;;;1.02;0.57;;;;;;;;;;5386946;26;86890;-48
2024/04/23 06:31:48;;;;;;;0.90;0.50;;;;;;;;;;5382015;26;85794;-46
2024/04/23 06:34:13;;;;;;;0.80;0.40;;;;;;;;;;5384849;26;85573;-47
2024/04/23 06:36:40;;;;;;;3.30;0.37;;;;;;;;;;5380334;26;85324;-45
2024/04/23 06:39:06;;;;;;;1.27;0.77;;;;;;;;;;5381503;26;85782;-45
2024/04/23 06:41:31;;;;;;;4.20;0.53;;;;;;;;;;5380632;26;84953;-49
2024/04/23 06:43:56;;;;;;;3.60;1.03;;;;;;;;;;5383198;26;88379;-46
2024/04/23 06:46:21;;;;;;;4.57;1.20;;;;;;;;;;5380491;25;85301;-45
2024/04/23 06:48:46;;;;;;;6.72;1.05;;;;;;;;;;5385485;26;86932;-51
2024/04/23 06:51:12;;;;;;;4.23;1.60;;;;;;;;;;5377286;26;85376;-45
2024/04/23 06:53:37;;;;;;;12.20;1.20;;;;;;;;;;5382622;26;85457;-44
2024/04/23 06:56:02;;;;;;;2.80;1.23;;;;;;;;;;5379449;26;85878;-47
2024/04/23 06:58:28;;;;;;;1.10;1.00;;;;;;;;;;5385512;26;86118;-46
2024/04/23 07:00:56;;;;;;;2.13;1.33;;;;;;;;;;5377217;26;85021;-51
2024/04/23 07:03:22;;;;;;;7.20;1.83;;;;;;;;;;5390366;26;85337;-48
2024/04/23 07:05:50;;;;;;;5.77;1.90;;;;;;;;;;5375873;26;84622;-46
2024/04/23 07:08:15;;;;;;;5.70;1.53;;;;;;;;;;5377756;26;85640;-44
2024/04/23 07:10:41;;;;;;;5.50;2.40;;;;;;;;;;5382351;26;85356;-44
2024/04/23 07:13:06;;;;;;;4.80;2.27;;;;;;;;;;5380238;26;86535;-45
2024/04/23 07:15:31;;;;;;;7.63;1.97;;;;;;;;;;5394499;26;85843;-46
2024/04/23 07:17:56;;;;;;;6.27;2.40;;;;;;;;;;5378285;26;85314;-46
2024/04/23 07:20:21;;;;;;;8.30;3.53;;;;;;;;;;5372336;25;85818;-44
2024/04/23 07:22:47;;;;;;;8.73;3.10;;;;;;;;;;5385653;26;85689;-47
2024/04/23 07:25:12;;;;;;;7.40;2.23;;;;;;;;;;5377694;26;85254;-48
2024/04/23 07:27:39;;;;;;;4.93;2.33;;;;;;;;;;5386156;26;85550;-47
2024/04/23 07:30:04;;;;;;;4.30;2.13;;;;;;;;;;5385028;26;84902;-46
2024/04/23 07:32:29;;;;;;;8.87;2.83;;;;;;;;;;5437871;25;87226;-47
2024/04/23 07:34:57;;;;;;;6.87;2.17;;;;;;;;;;5383912;26;85301;-47
2024/04/23 07:37:22;;;;;;;5.53;2.15;;;;;;;;;;5371923;26;86570;-48
2024/04/23 07:39:47;;;;;;;6.43;2.63;;;;;;;;;;5380790;25;85099;-47
2024/04/23 07:42:12;;;;;;;8.07;2.93;;;;;;;;;;5380307;26;86297;-47
2024/04/23 07:44:38;;;;;;;9.57;2.28;;;;;;;;;;5380025;26;85539;-50
2024/04/23 07:47:03;;;;;;;8.90;3.23;;;;;;;;;;5379261;26;85615;-44
2024/04/23 07:49:28;;;;;;;4.67;2.50;;;;;;;;;;5374360;26;85768;-44
2024/04/23 07:51:53;;;;;;;6.83;2.60;;;;;;;;;;5379506;26;85566;-44
2024/04/23 07:54:19;;;;;;;3.03;2.40;;;;;;;;;;5379777;26;84866;-44
2024/04/23 07:56:44;;;;;;;5.30;2.70;;;;;;;;;;5385153;26;85623;-49
2024/04/23 07:59:09;;;;;;;5.25;2.60;;;;;;;;;;5387599;25;86990;-46
2024/04/23 08:01:34;;;;;;;3.73;2.37;;;;;;;;;;5378716;26;87646;-49
2024/04/23 08:04:01;;;;;;;4.23;2.07;;;;;;;;;;5384445;26;85691;-44
2024/04/23 08:06:26;;;;;;;6.27;1.80;;;;;;;;;;5382191;26;86283;-46
2024/04/23 08:08:51;;;;;;;2.90;1.67;;;;;;;;;;5383893;26;85726;-43
2024/04/23 08:11:17;;;;;;;8.93;1.83;;;;;;;;;;5384252;26;85206;-45
2024/04/23 08:13:43;;;;;;;1.13;1.03;;;;;;;;;;5381490;26;85654;-48
2024/04/23 08:16:08;;;;;;;3.53;1.13;;;;;;;;;;5384508;26;86317;-48
2024/04/23 08:18:34;;;;;;;2.23;1.03;;;;;;;;;;5440048;25;86848;-44
2024/04/23 08:21:00;;;;;;;3.58;1.35;;;;;;;;;;5378675;26;85755;-45
2024/04/23 08:23:25;;;;;;;0.73;0.70;;;;;;;;;;5378584;26;85207;-48
2024/04/23 08:25:51;;;;;;;3.15;1.50;;;;;;;;;;5381996;26;86482;-47
2024/04/23 08:28:16;;;;;;;3.80;1.40;;;;;;;;;;5373488;26;85438;-47
2024/04/23 08:30:43;;;;;;;2.37;1.43;;;;;;;;;;5387890;26;85765;-45
2024/04/23 08:33:08;;;;;;;4.28;0.95;;;;;;;;;;5384122;26;85579;-51
2024/04/23 08:35:33;;;;;;;1.53;1.27;;;;;;;;;;5377693;25;85246;-46
2024/04/23 08:37:58;;;;;;;4.50;1.30;;;;;;;;;;5381410;26;85842;-45
2024/04/23 08:40:26;;;;;;;1.97;1.30;;;;;;;;;;5375931;26;85527;-46
2024/04/23 08:42:53;;;;;;;1.77;1.05;;;;;;;;;;5379308;26;84580;-50
2024/04/23 08:45:20;;;;;;;3.35;1.40;;;;;;;;;;5383526;26;86414;-49
2024/04/23 08:47:46;;;;;;;0.98;0.88;;;;;;;;;;5435782;25;87299;-45
2024/04/23 08:50:12;;;;;;;2.10;1.37;;;;;;;;;;5375056;26;86823;-45
2024/04/23 08:52:37;;;;;;;2.27;1.23;;;;;;;;;;5381287;26;86560;-47
2024/04/23 08:55:03;;;;;;;2.33;1.20;;;;;;;;;;5377684;26;85796;-46
2024/04/23 08:57:28;;;;;;;1.37;0.80;;;;;;;;;;5379931;26;85689;-47
2024/04/23 08:59:53;;;;;;;2.00;1.00;;;;;;;;;;5373193;26;88981;-44
2024/04/23 09:02:28;;;;;;;1.00;0.83;;;;;;;;;;5381323;26;85242;-47
2024/04/23 09:04:55;;;;;;;3.95;1.23;;;;;;;;;;5371741;26;85847;-48
2024/04/23 09:07:21;;;;;;;1.33;0.73;;;;;;;;;;5381716;26;84698;-49
2024/04/23 09:09:47;;;;;;;1.67;1.23;;;;;;;;;;5378873;26;85700;-45
2024/04/23 09:12:12;;;;;;;2.42;1.50;;;;;;;;;;5379863;26;85562;-44
2024/04/23 09:14:37;;;;;;;1.50;1.40;;;;;;;;;;5380726;26;87208;-44
2024/04/23 09:17:03;;;;;;;3.40;1.60;;;;;;;;;;5381827;26;85732;-47
2024/04/23 09:19:30;;;;;;;1.42;1.33;;;;;;;;;;5376054;26;86369;-47
2024/04/23 09:21:55;;;;;;;2.00;1.52;;;;;;;;;;5379643;26;84970;-48
2024/04/23 09:24:24;;;;;;;3.50;1.53;;;;;;;;;;5378766;26;85264;-45
2024/04/23 09:26:49;;;;;;;2.45;1.50;;;;;;;;;;5377695;26;85786;-44
2024/04/23 09:29:15;;;;;;;1.70;1.17;;;;;;;;;;5374168;26;85240;-44
2024/04/23 09:31:42;;;;;;;1.60;1.23;;;;;;;;;;5383410;26;84808;-45
2024/04/23 09:34:10;;;;;;;6.90;1.48;;;;;;;;;;5376171;26;85219;-48
2024/04/23 09:36:35;;;;;;;2.08;1.25;;;;;;;;;;5374379;26;85294;-48
2024/04/23 09:39:04;;;;;;;1.40;1.10;;;;;;;;;;5385246;26;87789;-46
2024/04/23 09:41:31;;;;;;;1.95;1.05;;;;;;;;;;5377010;26;85172;-48
2024/04/23 09:43:57;;;;;;;2.63;1.20;;;;;;;;;;5383769;26;86069;-50
2024/04/23 09:46:23;;;;;;;2.60;1.33;;;;;;;;;;5386694;26;85828;-48
2024/04/23 09:48:52;;;;;;;3.67;1.40;;;;;;;;;;5375175;26;85776;-45
2024/04/23 09:51:20;;;;;;;2.50;1.60;;;;;;;;;;5374611;26;85111;-47
2024/04/23 09:53:47;;;;;;;2.10;1.85;;;;;;;;;;5381228;26;85300;-43
2024/04/23 09:56:14;;;;;;;2.80;2.22;;;;;;;;;;5383084;26;84513;-45
2024/04/23 09:58:39;;;;;;;2.08;1.98;;;;;;;;;;5380705;26;85423;-45
2024/04/23 10:01:05;;;;;;;3.17;2.47;;;;;;;;;;5386689;26;85472;-46
2024/04/23 10:03:33;;;;;;;6.05;2.72;;;;;;;;;;5384919;26;87205;-44
2024/04/23 10:06:07;;;;;;;4.78;3.22;;;;;;;;;;5379512;26;85815;-45
2024/04/23 10:08:34;;;;;;;4.10;3.47;;;;;;;;;;5377740;25;85306;-48
2024/04/23 10:11:01;;;;;;;11.82;5.20;;;;;;;;;;5379363;26;86007;-46
2024/04/23 10:13:31;;;;;;;12.75;6.13;;;;;;;;;;5386448;25;85179;-46
2024/04/23 10:15:58;;;;;;;12.88;4.10;;;;;;;;;;5380640;26;86741;-45
2024/04/23 10:18:27;;;;;;;8.37;4.53;;;;;;;;;;5380419;25;85880;-46
2024/04/23 10:20:52;;;;;;;13.00;3.90;;;;;;;;;;5378073;26;85282;-45
2024/04/23 10:23:19;;;;;;;8.53;3.70;;;;;;;;;;5387459;26;85094;-44
2024/04/23 10:25:47;;;;;;;6.43;3.43;;;;;;;;;;5387066;25;86091;-48
2024/04/23 10:28:14;;;;;;;7.70;3.10;;;;;;;;;;5382422;26;86509;-44
2024/04/23 10:30:39;;;;;;;5.80;3.07;;;;;;;;;;5386051;26;86470;-45
2024/04/23 10:33:05;;;;;;;6.78;4.03;;;;;;;;;;5381338;26;86464;-46
2024/04/23 10:35:31;;;;;;;11.85;4.10;;;;;;;;;;5375255;26;85107;-50
2024/04/23 10:37:59;;;;;;;8.73;4.32;;;;;;;;;;5381510;26;85034;-47
2024/04/23 10:40:25;;;;;;;14.20;4.88;;;;;;;;;;5385007;26;85672;-48
2024/04/23 10:42:50;;;;;;;6.57;4.73;;;;;;;;;;5371936;26;85149;-48
2024/04/23 10:45:16;;;;;;;9.50;5.57;;;;;;;;;;5396843;26;84432;-46
2024/04/23 10:47:51;;;;;;;7.30;6.57;;;;;;;;;;5382100;26;85679;-45
2024/04/23 10:50:26;;;;;;;12.32;6.55;;;;;;;;;;5377754;26;85423;-45
2024/04/23 10:52:56;;;;;;;10.10;5.95;;;;;;;;;;5381594;26;86128;-49
2024/04/23 10:55:22;;;;;;;8.40;5.60;;;;;;;;;;5385347;25;85026;-48
2024/04/23 10:57:47;;;;;;;9.27;5.80;;;;;;;;;;5384062;26;85366;-45
2024/04/23 11:00:12;;;;;;;7.33;5.13;;;;;;;;;;5376578;26;85738;-43
2024/04/23 11:02:39;;;;;;;17.97;4.33;;;;;;;;;;5378894;26;85345;-46
2024/04/23 11:05:05;;;;;;;8.32;4.95;;;;;;;;;;5381571;26;85055;-46
2024/04/23 11:07:30;;;;;;;8.05;3.95;;;;;;;;;;5382243;26;85246;-46
2024/04/23 11:09:57;;;;;;;8.77;3.45;;;;;;;;;;5389981;26;84297;-46
2024/04/23 11:12:24;;;;;;;6.93;3.78;;;;;;;;;;5387581;26;85648;-46
2024/04/23 11:14:49;;;;;;;6.43;4.10;;;;;;;;;;5381601;26;85867;-46
2024/04/23 11:17:16;;;;;;;6.43;3.60;;;;;;;;;;5383934;26;86164;-49
2024/04/23 11:19:48;;;;;;;4.93;3.38;;;;;;;;;;5386197;26;85782;-45
2024/04/23 11:22:15;;;;;;;6.25;3.38;;;;;;;;;;5383419;26;85470;-43
2024/04/23 11:24:44;;;;;;;4.53;2.43;;;;;;;;;;5386467;26;86285;-42
2024/04/23 11:27:15;;;;;;;3.60;2.33;;;;;;;;;;5383790;26;85163;-46
2024/04/23 11:29:41;;;;;;;4.68;2.53;;;;;;;;;;5384608;26;85777;-46
2024/04/23 11:32:07;;;;;;;2.97;1.90;;;;;;;;;;5389527;26;85765;-47
2024/04/23 11:34:32;;;;;;;6.72;1.83;;;;;;;;;;5381579;26;84392;-43
2024/04/23 11:36:57;;;;;;;3.47;1.67;;;;;;;;;;5376912;26;85428;-42
2024/04/23 11:39:26;;;;;;;8.20;1.80;;;;;;;;;;5382479;26;85797;-45
2024/04/23 11:41:54;;;;;;;4.13;2.03;;;;;;;;;;5379830;26;86125;-43
2024/04/23 11:44:19;;;;;;;6.87;2.03;;;;;;;;;;5379428;25;87066;-45
2024/04/23 11:46:45;;;;;;;3.80;1.43;;;;;;;;;;5386022;26;85715;-47
2024/04/23 11:49:11;;;;;;;2.55;1.65;;;;;;;;;;5390754;26;86069;-56
2024/04/23 11:51:36;;;;;;;1.73;0.80;;;;;;;;;;5381610;26;85823;-47
2024/04/23 11:54:01;;;;;;;3.13;0.83;;;;;;;;;;5377127;26;85195;-50
2024/04/23 11:56:26;;;;;;;2.87;0.93;;;;;;;;;;5383185;26;85181;-46
2024/04/23 11:58:52;;;;;;;0.50;0.50;;;;;;;;;;5384596;26;85024;-47
2024/04/23 12:01:17;;;;;;;1.50;0.90;;;;;;;;;;5382618;25;85128;-51
2024/04/23 12:03:43;;;;;;;0.50;0.50;;;;;;;;;;5383452;26;85472;-45
2024/04/23 12:06:08;;;;;;;2.40;0.70;;;;;;;;;;5378165;26;86006;-46
2024/04/23 12:08:34;;;;;;;0.90;0.63;;;;;;;;;;5383676;26;85841;-45
2024/04/23 12:11:00;;;;;;;0.90;0.40;;;;;;;;;;5380962;26;85512;-44
2024/04/23 12:13:27;;;;;;;1.20;0.40;;;;;;;;;;5378943;26;85143;-49
2024/04/23 12:15:52;;;;;;;0.38;0.38;;;;;;;;;;5383158;26;85196;-44
2024/04/23 12:18:17;;;;;;;0.80;0.57;;;;;;;;;;5386630;26;86342;-45
2024/04/23 12:20:43;;;;;;;1.00;0.40;;;;;;;;;;5382835;25;85425;-47
2024/04/23 12:23:12;;;;;;;0.40;0.30;;;;;;;;;;5374951;26;86202;-43
2024/04/23 12:25:37;;;;;;;0.20;0.20;;;;;;;;;;5383236;26;85210;-47
2024/04/23 12:28:04;;;;;;;1.00;0.50;;;;;;;;;;5383389;26;85179;-47
2024/04/23 12:30:29;;;;;;;0.30;0.30;;;;;;;;;;5379224;26;86146;-46
2024/04/23 12:32:56;;;;;;;0.40;0.40;;;;;;;;;;5377460;26;85099;-44
2024/04/23 12:35:21;;;;;;;5.55;1.73;;;;;;;;;;5380913;26;85605;-42
2024/04/23 12:37:47;;;;;;;9.27;4.13;;;;;;;;;;5370153;26;86068;-45
2024/04/23 12:40:14;;;;;;;11.35;4.70;;;;;;;;;;5372521;26;88657;-48
2024/04/23 12:42:40;;;;;;;11.13;4.20;;;;;;;;;;5381650;26;85662;-47
2024/04/23 12:45:06;;;;;;;6.85;2.65;;;;;;;;;;5380146;26;85047;-43
2024/04/23 12:47:31;;;;;;;10.03;2.73;;;;;;;;;;5376945;26;84979;-44
2024/04/23 12:49:56;;;;;;;4.83;2.67;;;;;;;;;;5375042;26;86487;-44
2024/04/23 12:52:21;;;;;;;7.70;2.55;;;;;;;;;;5380001;26;85622;-43
2024/04/23 12:54:48;;;;;;;4.23;1.90;;;;;;;;;;5380440;26;86789;-46
2024/04/23 12:57:14;;;;;;;7.53;1.98;;;;;;;;;;5376779;26;86218;-44
2024/04/23 12:59:39;;;;;;;1.97;1.77;;;;;;;;;;5392691;25;85059;-45
2024/04/23 13:02:07;;;;;;;5.97;2.23;;;;;;;;;;5383235;26;85810;-48
2024/04/23 13:04:32;;;;;;;4.73;1.77;;;;;;;;;;5379156;26;85241;-43
2024/04/23 13:06:58;;;;;;;4.67;1.73;;;;;;;;;;5375675;26;85098;-45
2024/04/23 13:09:23;;;;;;;3.05;1.58;;;;;;;;;;5375204;26;85246;-43
2024/04/23 13:11:49;;;;;;;3.90;1.57;;;;;;;;;;5378532;26;84909;-47
2024/04/23 13:14:14;;;;;;;7.10;1.40;;;;;;;;;;5377735;26;85281;-47
2024/04/23 13:16:39;;;;;;;6.30;1.60;;;;;;;;;;5389638;26;85690;-53
2024/04/23 13:19:04;;;;;;;1.93;1.17;;;;;;;;;;5379805;26;85918;-48
2024/04/23 13:21:29;;;;;;;1.77;1.27;;;;;;;;;;5390412;26;85838;-52
2024/04/23 13:23:55;;;;;;;1.88;1.17;;;;;;;;;;5372510;26;85576;-45
2024/04/23 13:26:20;;;;;;;2.67;1.80;;;;;;;;;;5386958;26;85244;-44
2024/04/23 13:28:46;;;;;;;7.50;4.43;;;;;;;;;;5371718;26;85146;-45
2024/04/23 13:31:11;;;;;;;6.63;3.27;;;;;;;;;;5378205;26;85718;-50
2024/04/23 13:33:37;;;;;;;3.78;3.47;;;;;;;;;;5386150;26;85163;-46
2024/04/23 13:36:03;;;;;;;10.13;9.23;;;;;;;;;;5381936;26;85453;-43
2024/04/23 13:38:28;;;;;;;6.90;5.93;;;;;;;;;;5379223;26;85034;-45
2024/04/23 13:40:53;;;;;;;9.53;5.27;;;;;;;;;;5384104;25;86335;-47
2024/04/23 13:43:19;;;;;;;6.03;5.43;;;;;;;;;;5375977;26;86803;-46
2024/04/23 13:45:44;;;;;;;5.07;4.67;;;;;;;;;;5388229;26;86257;-42
2024/04/23 13:48:09;;;;;;;4.70;4.22;;;;;;;;;;5379796;26;87899;-46
2024/04/23 13:50:34;;;;;;;4.23;3.83;;;;;;;;;;5382057;26;85516;-44
2024/04/23 13:53:00;;;;;;;6.00;4.30;;;;;;;;;;5374691;26;85641;-43
2024/04/23 13:55:25;;;;;;;3.20;2.90;;;;;;;;;;5379062;26;85700;-42
2024/04/23 13:57:50;;;;;;;4.57;3.03;;;;;;;;;;5389203;26;86069;-49
2024/04/23 14:00:15;;;;;;;7.87;3.13;;;;;;;;;;5378016;26;86087;-47
2024/04/23 14:02:41;;;;;;;4.63;3.23;;;;;;;;;;5382685;26;86283;-43
2024/04/23 14:05:06;;;;;;;4.70;2.90;;;;;;;;;;5391563;26;85834;-43
2024/04/23 14:07:32;;;;;;;5.60;2.33;;;;;;;;;;5378208;26;86388;-43
2024/04/23 14:09:57;;;;;;;2.90;1.80;;;;;;;;;;5381318;26;85114;-46
2024/04/23 14:12:23;;;;;;;3.00;1.83;;;;;;;;;;5393635;26;85350;-43
2024/04/23 14:14:48;;;;;;;5.35;1.80;;;;;;;;;;5384034;25;85002;-43
2024/04/23 14:17:13;;;;;;;2.45;1.70;;;;;;;;;;5386347;26;85671;-46
2024/04/23 14:19:38;;;;;;;3.10;1.93;;;;;;;;;;5391601;26;86737;-46
2024/04/23 14:22:05;;;;;;;3.63;2.10;;;;;;;;;;5378293;26;86122;-43
2024/04/23 14:24:33;;;;;;;2.88;1.70;;;;;;;;;;5395336;25;84963;-47
2024/04/23 14:26:59;;;;;;;3.95;2.08;;;;;;;;;;5382464;26;85734;-43
2024/04/23 14:29:24;;;;;;;6.38;2.67;;;;;;;;;;5379412;26;87317;-46
2024/04/23 14:31:49;;;;;;;6.30;1.67;;;;;;;;;;5375926;26;86535;-44
2024/04/23 14:34:15;;;;;;;2.90;1.63;;;;;;;;;;5385671;26;86576;-49
2024/04/23 14:36:42;;;;;;;4.90;1.70;;;;;;;;;;5380096;26;85689;-45
2024/04/23 14:39:07;;;;;;;5.55;1.77;;;;;;;;;;5382488;26;85153;-46
2024/04/23 14:41:32;;;;;;;2.47;1.57;;;;;;;;;;5391812;26;87211;-42
2024/04/23 14:43:58;;;;;;;4.47;1.60;;;;;;;;;;5383996;26;85530;-44